Pagrindinis puslapis
METAR-TAF:

METAR-TAF

Oro uostai :

Yüksekova, Turkija

platuma: 37-33-06N, ilguma: 44-14-01E, Aukštis: 1950 m

Dabartinis oras

Ataskaita buvo paskelbta 26 minutes, ne 06:50 UTC
Vėjas 1 kt nuo kintamojo kryptimis
Temperatūra 18°C
Drėgmė 52%
Slėgis 1023 hPa
Matomumas 10 km arba daugiau
Mažai debesys ne aukštis 4000 ft

METAR: LTCW 140650Z VRB01KT 9999 FEW040 18/08 Q1023

Laikas: 10:16 (07:16 UTC)

Prognozė

Ataskaita buvo paskelbta 2 valandos ir 36 minutes, ne 04:40 UTC
Prognozė galioja nuo 14 metu 06 UTC su 14 metu 15 UTC
Vėjas 9 kt iš Šiaurės/Šiaurės Rytų
Matomumas 10 km arba daugiau
Mažai debesys ne aukštis 4000 ft

TAF: LTCW 140440Z 1406/1415 03009KT 9999 FEW040

Orai ataskaitas ir orų prognozės (METAR, TAF).

turimą stotys yra geltonos ir raudonos taškus žemėlapyje.

Perkelti pele per norėdami pamatyti stoties vardą.

Tada spustelėkite, norėdami matyti oro stebėjimo ir prognozės.

Norėdami pakeisti žemėlapį: spustelėkite ant žalios mygtukų su juodo kryžiaus žemyn,; žalią mygtuką su brūkšneliu, jei norite nutolinti; arba žalių rodyklių gretimoms žemėlapius.


METAR-TAF: